createdAt,value
2022-08-05T00:00:46.702Z,25.85
2022-08-05T00:03:20.097Z,25.95
2022-08-05T00:06:05.142Z,25.91
2022-08-05T00:08:35.702Z,25.95
2022-08-05T00:11:07.493Z,25.83
2022-08-05T00:13:47.217Z,25.86
2022-08-05T00:16:36.281Z,25.49
2022-08-05T00:19:07.507Z,25.03
2022-08-05T00:21:35.968Z,25.21
2022-08-05T00:24:11.051Z,24.94
2022-08-05T00:26:50.803Z,24.95
2022-08-05T00:29:19.515Z,25.09
2022-08-05T00:32:10.247Z,24.98
2022-08-05T00:35:05.542Z,24.86
2022-08-05T00:37:35.856Z,24.67
2022-08-05T00:40:27.467Z,25.16
2022-08-05T00:43:00.246Z,25.00
2022-08-05T00:45:38.970Z,24.89
2022-08-05T00:48:11.648Z,24.78
2022-08-05T00:50:41.284Z,25.21
2022-08-05T00:53:09.605Z,25.26
2022-08-05T00:55:56.009Z,25.30
2022-08-05T00:58:27.353Z,25.02
2022-08-05T01:00:55.018Z,25.17
2022-08-05T01:03:22.776Z,25.14
2022-08-05T01:05:51.509Z,24.53
2022-08-05T01:08:41.930Z,24.60
2022-08-05T01:11:14.613Z,24.33
2022-08-05T01:14:28.506Z,24.90
2022-08-05T01:17:09.054Z,24.18
2022-08-05T01:20:02.306Z,24.78
2022-08-05T01:22:47.591Z,24.71
2022-08-05T01:25:53.326Z,24.94
2022-08-05T01:28:20.571Z,24.73
2022-08-05T01:30:55.297Z,24.60
2022-08-05T01:33:35.622Z,24.58
2022-08-05T01:36:13.170Z,23.99
2022-08-05T01:38:45.693Z,24.45
2022-08-05T01:41:18.868Z,24.93
2022-08-05T01:43:51.158Z,24.17
2022-08-05T01:46:42.467Z,24.67
2022-08-05T01:49:23.106Z,24.98
2022-08-05T01:51:55.934Z,24.61
2022-08-05T01:54:27.318Z,24.06
2022-08-05T01:58:11.439Z,24.50
2022-08-05T01:59:47.305Z,24.42
2022-08-05T02:02:15.969Z,23.98
2022-08-05T02:04:46.171Z,23.65
2022-08-05T02:07:22.174Z,23.88
2022-08-05T02:09:50.985Z,24.16
2022-08-05T02:12:27.861Z,24.35
2022-08-05T02:15:17.794Z,24.63
2022-08-05T02:18:28.812Z,24.59
2022-08-05T02:21:00.084Z,24.34
2022-08-05T02:23:33.793Z,24.52
2022-08-05T02:26:06.205Z,24.27
2022-08-05T02:28:45.979Z,24.11
2022-08-05T02:31:17.153Z,24.29
2022-08-05T02:33:59.799Z,24.26
2022-08-05T02:36:31.437Z,24.37
2022-08-05T02:39:01.983Z,24.27
2022-08-05T02:41:43.304Z,23.89
2022-08-05T02:44:19.670Z,24.00
2022-08-05T02:46:59.816Z,24.20
2022-08-05T02:49:36.504Z,24.28
2022-08-05T02:52:08.804Z,23.95
2022-08-05T02:54:37.753Z,23.82
2022-08-05T02:58:10.177Z,23.56
2022-08-05T02:59:59.479Z,23.72
2022-08-05T03:02:29.640Z,23.79
2022-08-05T03:04:58.152Z,23.69
2022-08-05T03:07:59.198Z,23.90
2022-08-05T03:10:24.484Z,23.94
2022-08-05T03:12:53.016Z,23.79
2022-08-05T03:15:20.554Z,23.97
2022-08-05T03:17:47.298Z,23.95
2022-08-05T03:20:14.041Z,23.72
2022-08-05T03:22:44.107Z,23.60
2022-08-05T03:25:31.984Z,23.46
2022-08-05T03:28:03.120Z,23.85
2022-08-05T03:30:34.043Z,23.96
2022-08-05T03:33:03.135Z,24.11
2022-08-05T03:35:33.701Z,23.95
2022-08-05T03:38:01.379Z,23.98
2022-08-05T03:40:32.110Z,23.98
2022-08-05T03:43:15.736Z,23.83
2022-08-05T03:45:57.713Z,24.03
2022-08-05T03:48:29.128Z,23.99
2022-08-05T03:52:35.402Z,23.64
2022-08-05T03:55:06.960Z,23.69
2022-08-05T03:57:16.248Z,23.55
2022-08-05T04:00:05.940Z,24.04
2022-08-05T04:02:58.774Z,23.60
2022-08-05T04:05:33.208Z,23.41
2022-08-05T04:08:05.785Z,23.94
2022-08-05T04:10:50.994Z,23.88
2022-08-05T04:13:18.678Z,23.20
2022-08-05T04:15:52.634Z,23.37
2022-08-05T04:18:30.405Z,23.28
2022-08-05T04:20:58.327Z,22.94
2022-08-05T04:24:05.432Z,23.33
2022-08-05T04:26:13.747Z,23.70
2022-08-05T04:28:40.471Z,23.01
2022-08-05T04:31:18.099Z,23.18
2022-08-05T04:34:19.201Z,22.87
2022-08-05T04:36:49.642Z,23.13
2022-08-05T04:39:20.967Z,23.64
2022-08-05T04:41:51.201Z,22.83
2022-08-05T04:44:29.075Z,23.47
2022-08-05T04:46:58.434Z,23.86
2022-08-05T04:49:39.042Z,23.99
2022-08-05T04:52:12.955Z,23.62
2022-08-05T04:54:39.636Z,23.34
2022-08-05T04:57:06.362Z,22.84
2022-08-05T04:59:39.002Z,23.05
2022-08-05T05:02:41.321Z,23.48
2022-08-05T05:05:02.753Z,23.60
2022-08-05T05:07:31.914Z,23.12
2022-08-05T05:10:02.015Z,22.88
2022-08-05T05:12:29.322Z,22.90
2022-08-05T05:14:56.161Z,22.77
2022-08-05T05:17:24.847Z,22.65
2022-08-05T05:20:11.833Z,22.71
2022-08-05T05:22:40.733Z,22.26
2022-08-05T05:25:16.182Z,22.24
2022-08-05T05:27:45.638Z,22.60
2022-08-05T05:30:29.419Z,22.63
2022-08-05T05:33:14.189Z,23.02
2022-08-05T05:35:47.502Z,22.76
2022-08-05T05:38:22.731Z,23.02
2022-08-05T05:40:55.098Z,23.28
2022-08-05T05:43:54.483Z,23.40
2022-08-05T05:46:15.850Z,23.59
2022-08-05T05:48:44.801Z,23.64
2022-08-05T05:51:21.647Z,23.53
2022-08-05T05:53:57.624Z,23.59
2022-08-05T05:56:31.728Z,23.84
2022-08-05T05:59:05.841Z,23.76
2022-08-05T06:01:39.378Z,23.93
2022-08-05T06:04:13.058Z,23.93
2022-08-05T06:06:46.422Z,23.83
2022-08-05T06:09:17.287Z,23.90
2022-08-05T06:12:00.035Z,23.98
2022-08-05T06:14:32.114Z,24.16
2022-08-05T06:17:02.004Z,24.11
2022-08-05T06:19:56.818Z,24.31
2022-08-05T06:22:34.367Z,24.18
2022-08-05T06:25:59.717Z,24.46
2022-08-05T06:28:12.510Z,23.71
2022-08-05T06:30:36.493Z,23.69
2022-08-05T06:33:03.213Z,24.13
2022-08-05T06:36:03.497Z,24.40
2022-08-05T06:38:16.666Z,24.56
2022-08-05T06:40:44.477Z,24.46
2022-08-05T06:43:57.194Z,24.31
2022-08-05T06:46:06.900Z,24.58
2022-08-05T06:48:50.266Z,24.43
2022-08-05T06:51:29.399Z,24.42
2022-08-05T06:54:01.991Z,24.52
2022-08-05T06:56:30.319Z,24.70
2022-08-05T06:59:01.721Z,24.76
2022-08-05T07:01:32.297Z,24.21
2022-08-05T07:04:02.261Z,24.07
2022-08-05T07:06:29.677Z,23.86
2022-08-05T07:08:56.300Z,23.70
2022-08-05T07:11:28.020Z,23.16
2022-08-05T07:14:20.735Z,23.37
2022-08-05T07:18:08.338Z,23.53
2022-08-05T07:20:22.939Z,23.69
2022-08-05T07:22:34.534Z,23.98
2022-08-05T07:25:22.089Z,23.94
2022-08-05T07:27:57.421Z,23.98
2022-08-05T07:30:34.485Z,23.58
2022-08-05T07:33:09.178Z,24.05
2022-08-05T07:36:04.264Z,24.36
2022-08-05T07:38:33.977Z,23.62
2022-08-05T07:42:09.498Z,23.96
2022-08-05T07:43:56.460Z,24.09
2022-08-05T07:46:26.011Z,23.62
2022-08-05T07:49:03.654Z,23.92
2022-08-05T07:51:48.893Z,23.59
2022-08-05T07:54:30.866Z,23.92
2022-08-05T07:57:50.564Z,23.86
2022-08-05T07:59:48.965Z,24.00
2022-08-05T08:02:17.592Z,24.00
2022-08-05T08:04:47.424Z,24.15
2022-08-05T08:07:15.068Z,24.35
2022-08-05T08:09:42.466Z,23.96
2022-08-05T08:12:29.706Z,24.17
2022-08-05T08:15:02.474Z,23.90
2022-08-05T08:17:30.892Z,24.33
2022-08-05T08:20:21.081Z,24.69
2022-08-05T08:22:50.186Z,24.01
2022-08-05T08:25:26.883Z,23.98
2022-08-05T08:28:05.064Z,23.96
2022-08-05T08:30:40.864Z,23.95
2022-08-05T08:33:14.873Z,23.78
2022-08-05T08:35:53.166Z,23.67
2022-08-05T08:38:35.672Z,24.22
2022-08-05T08:41:10.078Z,24.45
2022-08-05T08:45:17.127Z,24.74
2022-08-05T08:46:31.141Z,25.14
2022-08-05T08:50:03.749Z,24.97
2022-08-05T08:52:03.717Z,24.94
2022-08-05T08:54:33.966Z,25.03
2022-08-05T08:57:05.576Z,25.05
2022-08-05T08:59:41.898Z,25.31
2022-08-05T09:02:14.630Z,24.94
2022-08-05T09:04:58.634Z,24.77
2022-08-05T09:07:39.545Z,24.68
2022-08-05T09:10:19.679Z,24.76
2022-08-05T09:12:51.094Z,25.14
2022-08-05T09:15:20.259Z,25.04
2022-08-05T09:17:49.499Z,25.55
2022-08-05T09:20:36.163Z,25.79
2022-08-05T09:23:18.980Z,25.92
2022-08-05T09:26:01.136Z,25.99
2022-08-05T09:28:33.745Z,25.86
2022-08-05T09:31:23.011Z,25.94
2022-08-05T09:34:04.490Z,26.07
2022-08-05T09:36:55.034Z,25.55
2022-08-05T09:39:39.495Z,25.49
2022-08-05T09:42:17.213Z,24.77
2022-08-05T09:44:51.441Z,25.18
2022-08-05T09:47:23.328Z,25.47
2022-08-05T09:50:00.762Z,25.61
2022-08-05T09:52:30.522Z,25.65
2022-08-05T09:55:06.309Z,25.66
2022-08-05T09:57:46.015Z,25.61
2022-08-05T10:00:17.369Z,25.33
2022-08-05T10:02:54.525Z,25.77
2022-08-05T10:05:26.723Z,26.06
2022-08-05T10:08:35.462Z,26.26
2022-08-05T10:10:53.887Z,25.82
2022-08-05T10:13:47.288Z,26.76
2022-08-05T10:16:41.765Z,26.11
2022-08-05T10:19:59.173Z,26.63
2022-08-05T10:22:25.614Z,26.17
2022-08-05T10:24:57.906Z,26.52
2022-08-05T10:27:26.073Z,26.65
2022-08-05T10:31:20.331Z,26.73
2022-08-05T10:33:03.151Z,26.76
2022-08-05T10:35:33.677Z,26.75
2022-08-05T10:38:11.902Z,26.61
2022-08-05T10:40:52.374Z,26.23
2022-08-05T10:43:43.301Z,26.54
2022-08-05T10:46:13.442Z,26.69
2022-08-05T10:48:57.027Z,26.78
2022-08-05T10:51:29.025Z,26.38
2022-08-05T10:54:23.010Z,26.58
2022-08-05T10:56:57.376Z,26.78
2022-08-05T11:00:04.363Z,27.21
2022-08-05T11:02:38.451Z,27.42
2022-08-05T11:05:11.742Z,26.94
2022-08-05T11:08:21.663Z,27.14
2022-08-05T11:11:00.894Z,26.93
2022-08-05T11:13:55.014Z,26.78
2022-08-05T11:16:33.844Z,26.87
2022-08-05T11:20:09.879Z,26.82
2022-08-05T11:22:42.143Z,26.36
2022-08-05T11:26:05.896Z,26.79
2022-08-05T11:28:17.056Z,26.80
2022-08-05T11:30:58.291Z,27.14
2022-08-05T11:33:34.753Z,26.02
2022-08-05T11:36:34.662Z,26.23
2022-08-05T11:39:09.040Z,26.20
2022-08-05T11:42:01.284Z,26.23
2022-08-05T11:44:53.433Z,26.31
2022-08-05T11:47:25.211Z,26.62
2022-08-05T11:50:14.436Z,26.57
2022-08-05T11:52:41.719Z,26.04
2022-08-05T11:55:12.672Z,25.17
2022-08-05T11:58:08.436Z,25.58
2022-08-05T12:00:38.549Z,25.19
2022-08-05T12:03:44.894Z,25.59
2022-08-05T12:06:25.847Z,24.71
2022-08-05T12:08:54.486Z,24.63
2022-08-05T12:11:28.377Z,24.60
2022-08-05T12:14:08.496Z,24.45
2022-08-05T12:16:45.506Z,25.05
2022-08-05T12:20:16.659Z,24.88
2022-08-05T12:22:01.676Z,24.57
2022-08-05T12:24:28.355Z,24.66
2022-08-05T12:26:56.983Z,24.78
2022-08-05T12:29:26.845Z,24.46
2022-08-05T12:31:55.882Z,24.31
2022-08-05T12:34:31.349Z,24.30
2022-08-05T12:37:10.585Z,24.02
2022-08-05T12:39:41.134Z,23.77
2022-08-05T12:42:14.273Z,23.78
2022-08-05T12:44:43.027Z,23.56
2022-08-05T12:47:12.539Z,23.40
2022-08-05T12:50:03.870Z,23.62
2022-08-05T12:52:39.507Z,23.68
2022-08-05T12:55:22.248Z,23.23
2022-08-05T12:58:38.469Z,23.15
2022-08-05T13:02:03.963Z,22.90
2022-08-05T13:03:31.913Z,22.05
2022-08-05T13:06:00.847Z,22.34
2022-08-05T13:08:32.295Z,22.50
2022-08-05T13:11:01.402Z,22.83
2022-08-05T13:14:06.685Z,22.61
2022-08-05T13:16:17.210Z,22.90
2022-08-05T13:18:55.249Z,22.79
2022-08-05T13:21:28.584Z,22.51
2022-08-05T13:24:05.679Z,22.51
2022-08-05T13:26:32.803Z,22.48
2022-08-05T13:28:59.573Z,22.03
2022-08-05T13:32:03.430Z,22.26
2022-08-05T13:34:22.024Z,22.57
2022-08-05T13:36:52.297Z,22.46
2022-08-05T13:40:13.896Z,22.08
2022-08-05T13:42:06.500Z,21.48
2022-08-05T13:44:35.052Z,22.60
2022-08-05T13:47:08.864Z,22.02
2022-08-05T13:49:36.441Z,22.39
2022-08-05T13:52:29.231Z,22.79
2022-08-05T13:54:57.133Z,22.30
2022-08-05T13:57:26.313Z,22.46
2022-08-05T14:00:13.271Z,22.11
2022-08-05T14:02:39.957Z,21.98
2022-08-05T14:05:15.431Z,22.59
2022-08-05T14:08:00.111Z,22.31
2022-08-05T14:10:32.579Z,22.61
2022-08-05T14:12:59.993Z,23.31
2022-08-05T14:16:07.446Z,23.44
2022-08-05T14:18:17.592Z,23.01
2022-08-05T14:20:49.009Z,23.19
2022-08-05T14:23:25.862Z,23.37
2022-08-05T14:25:59.059Z,23.76
2022-08-05T14:28:30.747Z,23.83
2022-08-05T14:31:01.572Z,23.96
2022-08-05T14:33:56.729Z,23.87
2022-08-05T14:36:15.599Z,23.18
2022-08-05T14:38:47.367Z,23.22
2022-08-05T14:41:14.011Z,23.53
2022-08-05T14:43:59.694Z,23.56
2022-08-05T14:46:31.413Z,23.62
2022-08-05T14:49:06.307Z,23.40
2022-08-05T14:51:35.834Z,23.12
2022-08-05T14:54:27.151Z,23.20
2022-08-05T14:56:51.139Z,22.95
2022-08-05T14:59:21.924Z,23.38
2022-08-05T15:01:49.805Z,23.44
2022-08-05T15:04:20.730Z,22.84
2022-08-05T15:06:52.160Z,22.84
2022-08-05T15:09:51.355Z,23.04
2022-08-05T15:12:09.007Z,22.77
2022-08-05T15:14:48.231Z,23.10
2022-08-05T15:17:47.171Z,23.19
2022-08-05T15:20:08.851Z,23.84
2022-08-05T15:22:36.952Z,23.85
2022-08-05T15:25:13.864Z,23.68
2022-08-05T15:27:43.022Z,23.68
2022-08-05T15:30:18.883Z,24.18
2022-08-05T15:32:46.571Z,23.71
2022-08-05T15:35:13.308Z,23.93
2022-08-05T15:38:32.797Z,23.34
2022-08-05T15:40:59.540Z,23.42
2022-08-05T15:43:20.553Z,23.17
2022-08-05T15:45:47.588Z,23.66
2022-08-05T15:48:15.288Z,22.89
2022-08-05T15:50:43.933Z,22.85
2022-08-05T15:53:12.981Z,22.90
2022-08-05T15:56:02.374Z,23.31
2022-08-05T15:58:29.247Z,22.99
2022-08-05T16:01:11.644Z,23.10
2022-08-05T16:03:43.658Z,22.38
2022-08-05T16:06:11.357Z,22.87
2022-08-05T16:08:38.760Z,22.93
2022-08-05T16:11:08.026Z,22.56
2022-08-05T16:13:35.298Z,22.21
2022-08-05T16:16:03.554Z,23.11
2022-08-05T16:18:32.960Z,23.34
2022-08-05T16:21:04.842Z,22.86
2022-08-05T16:23:53.141Z,23.13
2022-08-05T16:26:26.170Z,23.89
2022-08-05T16:28:53.511Z,23.96
2022-08-05T16:31:21.670Z,24.22
2022-08-05T16:33:48.431Z,24.01
2022-08-05T16:36:15.116Z,23.77
2022-08-05T16:38:54.293Z,24.21
2022-08-05T16:42:27.782Z,24.22
2022-08-05T16:44:11.565Z,23.70
2022-08-05T16:46:41.106Z,23.89
2022-08-05T16:49:09.917Z,23.92
2022-08-05T16:51:42.903Z,23.62
2022-08-05T16:54:25.778Z,23.78
2022-08-05T16:56:54.263Z,23.50
2022-08-05T16:59:20.993Z,23.60
2022-08-05T17:01:53.235Z,23.83
2022-08-05T17:04:21.365Z,23.80
2022-08-05T17:06:53.045Z,23.83
2022-08-05T17:09:20.930Z,23.60
2022-08-05T17:11:50.851Z,23.61
2022-08-05T17:14:22.512Z,23.61
2022-08-05T17:17:04.399Z,23.70
2022-08-05T17:19:31.341Z,23.65
2022-08-05T17:21:58.584Z,23.57
2022-08-05T17:24:34.995Z,23.73
2022-08-05T17:27:05.819Z,23.92
2022-08-05T17:29:40.215Z,24.02
2022-08-05T17:32:17.165Z,24.04
2022-08-05T17:34:46.194Z,23.96
2022-08-05T17:37:40.227Z,23.87
2022-08-05T17:40:01.647Z,23.81
2022-08-05T17:42:30.114Z,24.02
2022-08-05T17:44:59.019Z,23.52
2022-08-05T17:47:27.104Z,23.66
2022-08-05T17:50:03.811Z,23.81
2022-08-05T17:52:34.824Z,23.98
2022-08-05T17:55:21.258Z,23.65
2022-08-05T17:57:48.699Z,23.17
2022-08-05T18:00:17.422Z,23.31
2022-08-05T18:02:47.238Z,23.45
2022-08-05T18:05:17.050Z,23.57
2022-08-05T18:07:44.710Z,23.66
2022-08-05T18:10:20.363Z,23.70
2022-08-05T18:12:49.438Z,23.71
2022-08-05T18:15:16.360Z,23.89
2022-08-05T18:18:01.415Z,23.96
2022-08-05T18:20:32.097Z,23.94
2022-08-05T18:23:00.633Z,23.76
2022-08-05T18:25:38.972Z,23.91
2022-08-05T18:28:07.015Z,23.76
2022-08-05T18:30:40.171Z,23.62
2022-08-05T18:33:08.589Z,23.55
2022-08-05T18:36:00.009Z,23.56
2022-08-05T18:38:28.546Z,23.34
2022-08-05T18:41:56.163Z,23.50
2022-08-05T18:43:43.272Z,23.24
2022-08-05T18:46:20.111Z,23.24
2022-08-05T18:48:51.797Z,23.22
2022-08-05T18:52:04.624Z,23.10
2022-08-05T18:54:25.686Z,22.91
2022-08-05T18:56:54.208Z,23.03
2022-08-05T18:59:44.060Z,23.03
2022-08-05T19:02:11.330Z,23.12
2022-08-05T19:05:02.459Z,23.02
2022-08-05T19:07:46.087Z,22.69
2022-08-05T19:10:14.893Z,22.78
2022-08-05T19:12:43.098Z,22.78
2022-08-05T19:15:25.251Z,22.73
2022-08-05T19:18:08.550Z,22.62
2022-08-05T19:20:37.091Z,22.63
2022-08-05T19:23:08.644Z,22.52
2022-08-05T19:26:01.923Z,22.54
2022-08-05T19:28:33.761Z,22.48
2022-08-05T19:31:04.821Z,22.69
2022-08-05T19:33:36.842Z,22.53
2022-08-05T19:36:07.277Z,22.03
2022-08-05T19:38:36.744Z,21.75
2022-08-05T19:41:07.205Z,22.01
2022-08-05T19:44:05.830Z,22.32
2022-08-05T19:46:30.214Z,22.23
2022-08-05T19:49:03.451Z,22.25
2022-08-05T19:52:09.007Z,22.24
2022-08-05T19:54:31.586Z,22.03
2022-08-05T19:56:59.751Z,21.87
2022-08-05T19:59:56.657Z,21.52
2022-08-05T20:02:17.555Z,21.28
2022-08-05T20:04:45.858Z,21.62
2022-08-05T20:07:13.942Z,21.37
2022-08-05T20:09:53.541Z,21.63
2022-08-05T20:12:23.495Z,21.64
2022-08-05T20:14:52.386Z,21.63
2022-08-05T20:17:23.723Z,21.51
2022-08-05T20:19:56.948Z,21.61
2022-08-05T20:22:27.173Z,21.09
2022-08-05T20:24:55.752Z,21.31
2022-08-05T20:27:26.951Z,21.39
2022-08-05T20:29:58.581Z,21.39
2022-08-05T20:32:27.270Z,21.30
2022-08-05T20:34:54.622Z,21.54
2022-08-05T20:38:04.989Z,21.31
2022-08-05T20:40:09.045Z,21.11
2022-08-05T20:42:35.860Z,20.64
2022-08-05T20:45:04.122Z,21.40
2022-08-05T20:47:33.241Z,21.03
2022-08-05T20:50:02.285Z,21.28
2022-08-05T20:52:30.176Z,20.75
2022-08-05T20:55:55.025Z,20.85
2022-08-05T20:57:45.135Z,20.54
2022-08-05T21:00:41.270Z,20.97
2022-08-05T21:03:06.336Z,20.66
2022-08-05T21:05:48.280Z,20.91
2022-08-05T21:08:26.804Z,21.02
2022-08-05T21:11:00.263Z,20.86
2022-08-05T21:13:47.078Z,20.95
2022-08-05T21:16:19.285Z,20.15
2022-08-05T21:18:46.213Z,20.46
2022-08-05T21:21:13.011Z,20.48
2022-08-05T21:23:39.782Z,20.30
2022-08-05T21:26:14.554Z,20.32
2022-08-05T21:28:47.763Z,20.45
2022-08-05T21:31:18.319Z,20.40
2022-08-05T21:33:47.586Z,20.22
2022-08-05T21:36:27.509Z,20.26
2022-08-05T21:38:57.228Z,19.91
2022-08-05T21:41:26.016Z,20.27
2022-08-05T21:44:03.893Z,20.06
2022-08-05T21:46:34.524Z,20.17
2022-08-05T21:49:07.283Z,20.15
2022-08-05T21:52:23.054Z,20.24
2022-08-05T21:54:27.915Z,20.18
2022-08-05T21:57:15.397Z,19.72
2022-08-05T22:00:01.908Z,20.03
2022-08-05T22:02:39.266Z,19.86
2022-08-05T22:05:09.234Z,19.54
2022-08-05T22:07:39.834Z,19.60
2022-08-05T22:10:26.718Z,19.66
2022-08-05T22:12:57.211Z,19.64
2022-08-05T22:16:02.491Z,19.56
2022-08-05T22:18:11.298Z,19.58
2022-08-05T22:20:39.103Z,19.48
2022-08-05T22:24:03.006Z,19.28
2022-08-05T22:26:30.852Z,19.14
2022-08-05T22:28:57.669Z,19.19
2022-08-05T22:31:25.063Z,19.20
2022-08-05T22:34:01.187Z,19.29
2022-08-05T22:36:28.966Z,19.25
2022-08-05T22:38:56.830Z,19.19
2022-08-05T22:41:26.169Z,18.81
2022-08-05T22:44:12.082Z,18.44
2022-08-05T22:46:40.768Z,18.80
2022-08-05T22:49:12.193Z,18.96
2022-08-05T22:52:05.085Z,18.97
2022-08-05T22:54:35.614Z,18.90
2022-08-05T22:57:03.674Z,18.41
2022-08-05T22:59:43.872Z,18.72
2022-08-05T23:02:16.462Z,18.64
2022-08-05T23:04:51.314Z,18.91
2022-08-05T23:07:21.810Z,18.74
2022-08-05T23:09:53.490Z,18.66
2022-08-05T23:12:32.806Z,18.58
2022-08-05T23:15:08.767Z,18.66
2022-08-05T23:17:37.975Z,18.64
2022-08-05T23:20:24.567Z,18.71
2022-08-05T23:22:55.983Z,18.60
2022-08-05T23:25:54.599Z,18.36
2022-08-05T23:28:10.929Z,18.20
2022-08-05T23:30:40.418Z,18.16
2022-08-05T23:33:16.046Z,18.22
2022-08-05T23:35:45.799Z,18.07
2022-08-05T23:38:12.468Z,18.03
2022-08-05T23:40:42.286Z,17.96
2022-08-05T23:43:25.521Z,17.94
2022-08-05T23:46:02.824Z,17.82
2022-08-05T23:48:29.520Z,17.72
2022-08-05T23:50:56.269Z,17.69
2022-08-05T23:53:28.534Z,17.50
2022-08-05T23:56:12.219Z,17.53
2022-08-05T23:58:38.975Z,17.59
